createdAt,value
2022-08-17T00:00:34.965Z,29.64
2022-08-17T00:03:06.839Z,29.63
2022-08-17T00:05:39.460Z,29.61
2022-08-17T00:08:07.596Z,29.60
2022-08-17T00:10:36.253Z,29.58
2022-08-17T00:13:07.818Z,29.26
2022-08-17T00:15:35.907Z,29.59
2022-08-17T00:18:04.054Z,29.60
2022-08-17T00:20:53.589Z,29.58
2022-08-17T00:23:21.750Z,29.57
2022-08-17T00:25:50.047Z,29.57
2022-08-17T00:28:18.235Z,29.57
2022-08-17T00:30:52.773Z,29.57
2022-08-17T00:33:25.848Z,29.57
2022-08-17T00:35:56.662Z,29.49
2022-08-17T00:38:26.142Z,29.56
2022-08-17T00:40:59.178Z,29.55
2022-08-17T00:43:32.896Z,29.55
2022-08-17T00:46:02.873Z,29.53
2022-08-17T00:48:32.049Z,29.53
2022-08-17T00:51:07.789Z,29.55
2022-08-17T00:53:39.849Z,29.52
2022-08-17T00:56:11.918Z,29.52
2022-08-17T00:58:40.552Z,29.45
2022-08-17T01:01:11.734Z,29.52
2022-08-17T01:03:40.330Z,29.49
2022-08-17T01:06:10.218Z,29.49
2022-08-17T01:08:40.678Z,29.43
2022-08-17T01:11:09.433Z,29.45
2022-08-17T01:13:41.589Z,29.47
2022-08-17T01:16:17.185Z,29.42
2022-08-17T01:18:47.898Z,29.44
2022-08-17T01:21:25.822Z,29.44
2022-08-17T01:23:55.380Z,29.42
2022-08-17T01:26:24.154Z,29.41
2022-08-17T01:28:55.444Z,29.34
2022-08-17T01:31:29.740Z,29.40
2022-08-17T01:33:59.569Z,29.38
2022-08-17T01:36:30.511Z,29.36
2022-08-17T01:39:00.269Z,29.36
2022-08-17T01:41:29.453Z,29.35
2022-08-17T01:44:02.586Z,29.35
2022-08-17T01:46:34.116Z,29.34
2022-08-17T01:49:06.411Z,29.31
2022-08-17T01:51:35.132Z,29.15
2022-08-17T01:54:07.647Z,29.33
2022-08-17T01:56:39.661Z,29.32
2022-08-17T01:59:07.803Z,29.28
2022-08-17T02:01:37.148Z,29.30
2022-08-17T02:04:07.130Z,29.29
2022-08-17T02:06:52.697Z,29.25
2022-08-17T02:09:25.666Z,29.28
2022-08-17T02:11:54.806Z,29.27
2022-08-17T02:14:25.354Z,29.26
2022-08-17T02:16:54.655Z,29.26
2022-08-17T02:19:23.593Z,29.24
2022-08-17T02:21:53.437Z,29.25
2022-08-17T02:24:58.600Z,29.25
2022-08-17T02:27:13.413Z,29.24
2022-08-17T02:29:41.418Z,29.23
2022-08-17T02:32:22.268Z,29.25
2022-08-17T02:34:56.642Z,29.22
2022-08-17T02:37:24.694Z,29.22
2022-08-17T02:39:54.143Z,29.24
2022-08-17T02:42:27.765Z,29.24
2022-08-17T02:44:55.944Z,29.22
2022-08-17T02:47:24.146Z,29.22
2022-08-17T02:49:54.331Z,29.22
2022-08-17T02:52:42.892Z,29.21
2022-08-17T02:55:16.609Z,29.22
2022-08-17T02:57:45.129Z,29.20
2022-08-17T03:00:17.006Z,29.21
2022-08-17T03:02:45.910Z,29.19
2022-08-17T03:05:16.911Z,29.16
2022-08-17T03:07:44.981Z,29.16
2022-08-17T03:10:15.656Z,29.15
2022-08-17T03:12:44.516Z,29.15
2022-08-17T03:15:15.641Z,29.15
2022-08-17T03:17:44.063Z,29.13
2022-08-17T03:20:13.666Z,29.12
2022-08-17T03:22:47.982Z,29.13
2022-08-17T03:25:25.908Z,29.11
2022-08-17T03:27:54.831Z,29.10
2022-08-17T03:30:23.825Z,29.10
2022-08-17T03:32:54.680Z,29.10
2022-08-17T03:35:24.727Z,29.09
2022-08-17T03:38:00.348Z,29.08
2022-08-17T03:40:34.594Z,29.08
2022-08-17T03:43:21.871Z,29.07
2022-08-17T03:46:10.774Z,29.02
2022-08-17T03:49:13.373Z,29.03
2022-08-17T03:51:58.627Z,29.06
2022-08-17T03:54:44.446Z,29.04
2022-08-17T03:57:14.167Z,28.91
2022-08-17T03:59:42.434Z,29.05
2022-08-17T04:02:14.092Z,29.08
2022-08-17T04:04:42.157Z,29.06
2022-08-17T04:07:10.522Z,29.05
2022-08-17T04:09:38.486Z,29.06
2022-08-17T04:12:07.008Z,29.05
2022-08-17T04:14:51.802Z,29.05
2022-08-17T04:17:22.976Z,28.86
2022-08-17T04:19:50.948Z,29.06
2022-08-17T04:22:30.132Z,29.07
2022-08-17T04:25:03.489Z,29.05
2022-08-17T04:27:31.808Z,29.05
2022-08-17T04:30:01.372Z,29.05
2022-08-17T04:33:09.820Z,29.06
2022-08-17T04:35:22.049Z,29.07
2022-08-17T04:37:50.383Z,29.04
2022-08-17T04:40:37.153Z,29.06
2022-08-17T04:43:08.724Z,29.04
2022-08-17T04:45:55.632Z,28.91
2022-08-17T04:48:34.725Z,29.04
2022-08-17T04:51:07.611Z,29.05
2022-08-17T04:53:35.692Z,29.03
2022-08-17T04:56:04.028Z,29.05
2022-08-17T04:58:32.091Z,29.03
2022-08-17T05:01:01.592Z,29.00
2022-08-17T05:03:29.819Z,29.02
2022-08-17T05:05:57.763Z,29.02
2022-08-17T05:08:25.842Z,29.03
2022-08-17T05:10:53.818Z,29.00
2022-08-17T05:13:23.750Z,29.02
2022-08-17T05:15:56.598Z,29.02
2022-08-17T05:18:26.762Z,29.02
2022-08-17T05:20:55.330Z,29.02
2022-08-17T05:23:26.430Z,29.01
2022-08-17T05:26:17.944Z,28.99
2022-08-17T05:28:57.301Z,28.98
2022-08-17T05:31:27.949Z,28.97
2022-08-17T05:33:57.346Z,28.99
2022-08-17T05:36:41.657Z,28.98
2022-08-17T05:39:15.842Z,28.95
2022-08-17T05:41:47.124Z,28.96
2022-08-17T05:44:15.578Z,28.97
2022-08-17T05:46:49.120Z,28.99
2022-08-17T05:49:24.412Z,28.99
2022-08-17T05:52:14.832Z,29.00
2022-08-17T05:55:03.740Z,29.01
2022-08-17T05:57:44.796Z,29.03
2022-08-17T06:00:30.033Z,29.04
2022-08-17T06:03:23.537Z,29.06
2022-08-17T06:06:02.399Z,29.07
2022-08-17T06:08:35.832Z,29.08
2022-08-17T06:11:14.052Z,29.09
2022-08-17T06:13:58.606Z,29.12
2022-08-17T06:16:34.341Z,29.10
2022-08-17T06:19:11.190Z,29.12
2022-08-17T06:21:44.371Z,29.14
2022-08-17T06:24:28.552Z,29.14
2022-08-17T06:27:01.058Z,29.14
2022-08-17T06:29:38.204Z,29.16
2022-08-17T06:32:09.201Z,29.15
2022-08-17T06:34:40.689Z,29.16
2022-08-17T06:37:30.333Z,29.02
2022-08-17T06:40:12.906Z,29.19
2022-08-17T06:43:02.817Z,29.20
2022-08-17T06:45:39.054Z,29.19
2022-08-17T06:48:12.842Z,29.20
2022-08-17T06:50:45.442Z,29.21
2022-08-17T06:53:22.065Z,29.23
2022-08-17T06:55:59.938Z,29.23
2022-08-17T06:58:31.939Z,29.24
2022-08-17T07:01:06.911Z,29.26
2022-08-17T07:03:40.729Z,29.26
2022-08-17T07:06:13.633Z,29.27
2022-08-17T07:08:52.200Z,29.29
2022-08-17T07:11:28.160Z,29.28
2022-08-17T07:14:07.053Z,29.29
2022-08-17T07:16:41.120Z,29.30
2022-08-17T07:19:10.944Z,29.30
2022-08-17T07:21:48.841Z,29.31
2022-08-17T07:24:39.405Z,29.34
2022-08-17T07:27:11.265Z,29.35
2022-08-17T07:29:43.004Z,29.36
2022-08-17T07:32:18.544Z,29.36
2022-08-17T07:35:11.165Z,29.23
2022-08-17T07:37:41.348Z,29.38
2022-08-17T07:40:35.635Z,29.38
2022-08-17T07:43:21.990Z,29.33
2022-08-17T07:46:24.233Z,29.38
2022-08-17T07:48:54.706Z,29.34
2022-08-17T07:51:29.452Z,29.41
2022-08-17T07:54:13.676Z,29.43
2022-08-17T07:56:47.236Z,29.42
2022-08-17T07:59:23.640Z,29.44
2022-08-17T08:02:05.428Z,29.44
2022-08-17T08:05:06.759Z,29.43
2022-08-17T08:07:29.494Z,29.36
2022-08-17T08:10:09.930Z,29.41
2022-08-17T08:12:42.013Z,29.49
2022-08-17T08:15:17.742Z,29.50
2022-08-17T08:17:53.153Z,29.51
2022-08-17T08:20:37.720Z,29.51
2022-08-17T08:23:35.969Z,29.52
2022-08-17T08:26:18.563Z,29.52
2022-08-17T08:28:55.660Z,29.52
2022-08-17T08:31:32.045Z,29.53
2022-08-17T08:34:58.842Z,29.54
2022-08-17T08:37:17.783Z,29.53
2022-08-17T08:39:59.645Z,29.55
2022-08-17T08:42:35.844Z,29.55
2022-08-17T08:45:13.647Z,29.58
2022-08-17T08:48:05.388Z,29.59
2022-08-17T08:50:43.753Z,29.60
2022-08-17T08:53:21.306Z,29.62
2022-08-17T08:55:55.917Z,29.61
2022-08-17T08:58:41.985Z,29.60
2022-08-17T09:01:22.236Z,29.63
2022-08-17T09:05:10.329Z,29.62
2022-08-17T09:07:39.023Z,29.60
2022-08-17T09:10:14.977Z,29.62
2022-08-17T09:12:49.908Z,29.62
2022-08-17T09:15:22.932Z,29.62
2022-08-17T09:18:59.409Z,29.64
2022-08-17T09:20:52.440Z,29.62
2022-08-17T09:23:37.038Z,29.65
2022-08-17T09:26:11.505Z,29.65
2022-08-17T09:28:45.836Z,29.67
2022-08-17T09:31:20.777Z,29.67
2022-08-17T09:33:51.280Z,29.67
2022-08-17T09:36:29.266Z,29.67
2022-08-17T09:39:02.566Z,29.65
2022-08-17T09:41:38.822Z,29.66
2022-08-17T09:44:25.630Z,29.65
2022-08-17T09:46:57.034Z,29.65
2022-08-17T09:49:31.992Z,29.51
2022-08-17T09:52:04.516Z,29.66
2022-08-17T09:54:39.913Z,29.66
2022-08-17T09:57:31.837Z,29.67
2022-08-17T10:00:18.744Z,29.64
2022-08-17T10:03:24.196Z,29.64
2022-08-17T10:06:00.787Z,29.63
2022-08-17T10:08:40.202Z,29.64
2022-08-17T10:11:33.285Z,29.51
2022-08-17T10:14:36.720Z,29.64
2022-08-17T10:17:04.168Z,29.65
2022-08-17T10:19:39.049Z,29.65
2022-08-17T10:22:41.472Z,29.66
2022-08-17T10:25:48.613Z,29.62
2022-08-17T10:28:25.802Z,29.63
2022-08-17T10:31:30.834Z,29.59
2022-08-17T10:34:00.136Z,29.65
2022-08-17T10:36:43.206Z,29.65
2022-08-17T10:39:25.940Z,29.66
2022-08-17T10:42:00.600Z,29.65
2022-08-17T10:44:45.576Z,29.66
2022-08-17T10:47:17.172Z,29.66
2022-08-17T10:49:53.561Z,29.65
2022-08-17T10:52:50.009Z,29.67
2022-08-17T10:55:21.218Z,29.66
2022-08-17T10:57:51.218Z,29.65
2022-08-17T11:01:12.685Z,29.70
2022-08-17T11:03:53.494Z,29.67
2022-08-17T11:06:31.373Z,29.69
2022-08-17T11:09:19.816Z,29.71
2022-08-17T11:12:07.657Z,29.69
2022-08-17T11:14:49.640Z,29.69
2022-08-17T11:17:37.548Z,29.70
2022-08-17T11:20:22.340Z,29.70
2022-08-17T11:23:21.793Z,29.69
2022-08-17T11:25:54.252Z,29.69
2022-08-17T11:28:28.037Z,29.71
2022-08-17T11:30:59.361Z,29.71
2022-08-17T11:34:04.763Z,29.72
2022-08-17T11:37:11.051Z,29.72
2022-08-17T11:39:55.442Z,29.73
2022-08-17T11:42:40.941Z,29.71
2022-08-17T11:45:33.765Z,29.73
2022-08-17T11:48:31.381Z,29.73
2022-08-17T11:51:24.872Z,29.67
2022-08-17T11:57:02.249Z,29.76
2022-08-17T11:59:59.446Z,29.81
2022-08-17T12:02:35.800Z,29.81
2022-08-17T12:05:26.129Z,29.83
2022-08-17T12:08:06.539Z,29.83
2022-08-17T12:10:37.426Z,29.84
2022-08-17T12:13:11.515Z,29.69
2022-08-17T12:15:45.046Z,29.87
2022-08-17T12:18:22.528Z,29.89
2022-08-17T12:21:06.404Z,29.89
2022-08-17T12:23:44.138Z,29.90
2022-08-17T12:26:19.381Z,29.90
2022-08-17T12:28:49.795Z,29.91
2022-08-17T12:31:22.812Z,29.93
2022-08-17T12:33:52.752Z,29.94
2022-08-17T12:36:24.991Z,29.94
2022-08-17T12:39:13.899Z,29.94
2022-08-17T12:41:46.819Z,29.93
2022-08-17T12:44:18.154Z,29.92
2022-08-17T12:46:53.230Z,29.95
2022-08-17T12:49:27.449Z,29.96
2022-08-17T12:52:04.268Z,29.98
2022-08-17T12:54:41.733Z,29.97
2022-08-17T12:57:15.683Z,30.01
2022-08-17T12:59:46.606Z,30.02
2022-08-17T13:02:35.838Z,30.05
2022-08-17T13:05:08.246Z,30.05
2022-08-17T13:07:43.107Z,30.04
2022-08-17T13:10:18.404Z,30.06
2022-08-17T13:12:47.965Z,30.04
2022-08-17T13:15:22.234Z,30.08
2022-08-17T13:17:58.533Z,30.10
2022-08-17T13:20:28.135Z,30.10
2022-08-17T13:22:58.729Z,30.11
2022-08-17T13:25:29.357Z,30.13
2022-08-17T13:27:58.026Z,30.02
2022-08-17T13:30:32.607Z,30.10
2022-08-17T13:33:04.809Z,30.14
2022-08-17T13:35:47.132Z,30.15
2022-08-17T13:38:37.559Z,30.16
2022-08-17T13:41:06.408Z,30.15
2022-08-17T13:43:48.568Z,30.17
2022-08-17T13:46:22.698Z,30.17
2022-08-17T13:49:00.259Z,30.20
2022-08-17T13:51:33.780Z,30.19
2022-08-17T13:54:09.523Z,30.19
2022-08-17T13:56:41.710Z,30.05
2022-08-17T13:59:13.684Z,30.21
2022-08-17T14:01:44.086Z,30.21
2022-08-17T14:04:14.415Z,30.19
2022-08-17T14:06:54.087Z,30.21
2022-08-17T14:09:24.556Z,30.05
2022-08-17T14:11:54.230Z,30.22
2022-08-17T14:14:23.678Z,30.22
2022-08-17T14:16:52.131Z,30.22
2022-08-17T14:19:21.943Z,30.24
2022-08-17T14:21:56.460Z,30.22
2022-08-17T14:24:27.482Z,30.25
2022-08-17T14:26:55.918Z,30.25
2022-08-17T14:29:26.014Z,30.26
2022-08-17T14:31:54.334Z,30.25
2022-08-17T14:34:23.401Z,30.26
2022-08-17T14:36:53.232Z,30.28
2022-08-17T14:39:21.673Z,30.24
2022-08-17T14:41:50.166Z,30.27
2022-08-17T14:44:18.286Z,30.27
2022-08-17T14:46:47.949Z,30.27
2022-08-17T14:49:16.148Z,30.28
2022-08-17T14:51:44.770Z,30.25
2022-08-17T14:54:32.952Z,30.30
2022-08-17T14:57:22.642Z,30.29
2022-08-17T14:59:54.253Z,30.29
2022-08-17T15:02:29.307Z,30.30
2022-08-17T15:05:00.129Z,30.30
2022-08-17T15:07:31.165Z,30.31
2022-08-17T15:10:02.113Z,30.25
2022-08-17T15:12:34.304Z,30.17
2022-08-17T15:15:04.766Z,30.33
2022-08-17T15:17:44.837Z,30.33
2022-08-17T15:20:15.882Z,30.32
2022-08-17T15:22:46.196Z,30.32
2022-08-17T15:25:15.979Z,30.27
2022-08-17T15:27:44.076Z,30.31
2022-08-17T15:30:13.581Z,30.34
2022-08-17T15:32:50.798Z,30.20
2022-08-17T15:35:27.349Z,30.33
2022-08-17T15:38:07.977Z,30.34
2022-08-17T15:40:39.209Z,30.35
2022-08-17T15:43:07.760Z,30.34
2022-08-17T15:45:35.770Z,30.35
2022-08-17T15:48:04.262Z,30.32
2022-08-17T15:50:32.496Z,30.35
2022-08-17T15:53:02.062Z,30.35
2022-08-17T15:55:31.962Z,30.36
2022-08-17T15:58:01.708Z,30.37
2022-08-17T16:00:29.979Z,30.36
2022-08-17T16:03:44.679Z,30.36
2022-08-17T16:05:48.918Z,30.35
2022-08-17T16:08:21.154Z,30.36
2022-08-17T16:10:50.176Z,30.34
2022-08-17T16:13:20.411Z,30.36
2022-08-17T16:15:56.949Z,30.37
2022-08-17T16:18:30.968Z,30.36
2022-08-17T16:21:20.488Z,30.35
2022-08-17T16:23:49.534Z,30.35
2022-08-17T16:26:18.013Z,30.33
2022-08-17T16:28:47.808Z,30.35
2022-08-17T16:31:16.616Z,30.36
2022-08-17T16:34:16.163Z,30.35
2022-08-17T16:36:34.060Z,30.34
2022-08-17T16:39:01.994Z,30.23
2022-08-17T16:41:45.151Z,30.33
2022-08-17T16:44:15.732Z,30.34
2022-08-17T16:46:45.802Z,30.34
2022-08-17T16:49:35.441Z,30.33
2022-08-17T16:52:04.126Z,30.32
2022-08-17T16:54:32.824Z,30.32
2022-08-17T16:57:00.773Z,30.32
2022-08-17T16:59:41.042Z,30.32
2022-08-17T17:02:15.370Z,30.32
2022-08-17T17:04:51.563Z,30.30
2022-08-17T17:07:49.618Z,30.30
2022-08-17T17:10:19.929Z,30.25
2022-08-17T17:13:02.369Z,30.26
2022-08-17T17:15:46.360Z,30.24
2022-08-17T17:18:15.441Z,30.20
2022-08-17T17:20:48.929Z,30.21
2022-08-17T17:23:31.297Z,30.19
2022-08-17T17:26:10.975Z,30.17
2022-08-17T17:28:46.363Z,30.15
2022-08-17T17:31:19.259Z,30.15
2022-08-17T17:33:51.119Z,30.14
2022-08-17T17:36:26.775Z,30.15
2022-08-17T17:38:57.260Z,30.14
2022-08-17T17:41:31.418Z,30.17
2022-08-17T17:44:03.748Z,30.14
2022-08-17T17:46:37.957Z,30.14
2022-08-17T17:49:07.012Z,30.13
2022-08-17T17:52:08.612Z,30.13
2022-08-17T17:54:52.272Z,30.11
2022-08-17T17:57:29.769Z,30.06
2022-08-17T18:00:06.963Z,30.12
2022-08-17T18:02:57.247Z,30.12
2022-08-17T18:05:36.359Z,30.11
2022-08-17T18:08:34.043Z,30.10
2022-08-17T18:11:14.927Z,30.08
2022-08-17T18:14:05.727Z,30.07
2022-08-17T18:16:35.873Z,30.06
2022-08-17T18:19:06.176Z,30.07
2022-08-17T18:21:38.089Z,30.07
2022-08-17T18:24:10.404Z,30.06
2022-08-17T18:26:46.366Z,30.07
2022-08-17T18:29:31.351Z,30.03
2022-08-17T18:32:23.817Z,29.94
2022-08-17T18:34:55.944Z,30.02
2022-08-17T18:37:45.919Z,30.02
2022-08-17T18:40:32.822Z,29.94
2022-08-17T18:43:06.067Z,29.98
2022-08-17T18:45:38.465Z,29.92
2022-08-17T18:48:18.188Z,29.98
2022-08-17T18:50:47.685Z,29.98
2022-08-17T18:53:36.879Z,29.98
2022-08-17T18:56:32.464Z,29.96
2022-08-17T18:59:10.995Z,29.95
2022-08-17T19:01:53.621Z,29.95
2022-08-17T19:04:34.035Z,29.95
2022-08-17T19:07:12.981Z,29.92
2022-08-17T19:09:47.008Z,29.94
2022-08-17T19:12:27.822Z,29.94
2022-08-17T19:14:58.066Z,29.93
2022-08-17T19:17:33.363Z,29.93
2022-08-17T19:20:06.361Z,29.92
2022-08-17T19:22:46.585Z,29.93
2022-08-17T19:25:19.783Z,29.92
2022-08-17T19:27:57.738Z,29.91
2022-08-17T19:30:27.838Z,29.62
2022-08-17T19:32:57.766Z,29.89
2022-08-17T19:35:31.899Z,29.87
2022-08-17T19:38:13.232Z,29.88
2022-08-17T19:41:00.572Z,29.73
2022-08-17T19:43:47.939Z,29.81
2022-08-17T19:46:26.138Z,29.81
2022-08-17T19:49:02.646Z,29.82
2022-08-17T19:51:40.570Z,29.80
2022-08-17T19:54:20.486Z,29.82
2022-08-17T19:56:56.575Z,29.82
2022-08-17T19:59:36.374Z,29.83
2022-08-17T20:02:20.771Z,29.84
2022-08-17T20:04:51.681Z,29.84
2022-08-17T20:07:25.125Z,29.85
2022-08-17T20:10:01.246Z,29.87
2022-08-17T20:12:35.002Z,29.84
2022-08-17T20:15:09.544Z,29.85
2022-08-17T20:17:43.248Z,29.88
2022-08-17T20:20:27.843Z,29.90
2022-08-17T20:23:03.813Z,29.90
2022-08-17T20:25:43.389Z,29.91
2022-08-17T20:28:21.083Z,29.91
2022-08-17T20:30:51.825Z,29.89
2022-08-17T20:33:29.929Z,29.90
2022-08-17T20:36:06.304Z,29.91
2022-08-17T20:38:44.395Z,29.91
2022-08-17T20:41:16.800Z,29.90
2022-08-17T20:44:04.626Z,29.90
2022-08-17T20:46:56.545Z,29.91
2022-08-17T20:49:28.864Z,29.91
2022-08-17T20:52:03.713Z,29.91
2022-08-17T20:54:45.463Z,29.92
2022-08-17T20:57:47.398Z,29.91
2022-08-17T21:00:44.596Z,29.89
2022-08-17T21:03:52.231Z,29.89
2022-08-17T21:06:26.005Z,29.87
2022-08-17T21:08:57.959Z,29.86
2022-08-17T21:12:03.925Z,29.85
2022-08-17T21:14:42.926Z,29.83
2022-08-17T21:17:38.726Z,29.84
2022-08-17T21:20:16.261Z,29.84
2022-08-17T21:22:58.041Z,29.83
2022-08-17T21:25:44.860Z,29.82
2022-08-17T21:28:22.804Z,29.82
2022-08-17T21:31:08.301Z,29.80
2022-08-17T21:33:40.082Z,29.80
2022-08-17T21:36:25.446Z,29.80
2022-08-17T21:39:01.443Z,29.79
2022-08-17T21:41:33.805Z,29.78
2022-08-17T21:44:21.628Z,29.77
2022-08-17T21:46:53.577Z,29.76
2022-08-17T21:49:28.627Z,29.78
2022-08-17T21:51:57.791Z,29.75
2022-08-17T21:54:31.765Z,29.77
2022-08-17T21:57:02.348Z,29.76
2022-08-17T21:59:32.957Z,29.63
2022-08-17T22:02:05.670Z,29.75
2022-08-17T22:04:35.469Z,29.57
2022-08-17T22:07:05.807Z,29.73
2022-08-17T22:09:36.775Z,29.71
2022-08-17T22:12:08.897Z,29.72
2022-08-17T22:14:53.471Z,29.70
2022-08-17T22:17:25.689Z,29.72
2022-08-17T22:19:56.448Z,29.71
2022-08-17T22:22:28.869Z,29.72
2022-08-17T22:24:59.078Z,29.71
2022-08-17T22:27:52.403Z,29.69
2022-08-17T22:30:33.185Z,29.66
2022-08-17T22:33:37.299Z,29.66
2022-08-17T22:36:14.435Z,29.66
2022-08-17T22:38:43.812Z,29.66
2022-08-17T22:41:32.072Z,29.67
2022-08-17T22:44:07.523Z,29.67
2022-08-17T22:46:41.148Z,29.66
2022-08-17T22:49:10.538Z,29.65
2022-08-17T22:51:38.604Z,29.63
2022-08-17T22:54:37.837Z,29.63
2022-08-17T22:57:24.077Z,29.58
2022-08-17T22:59:54.932Z,29.57
2022-08-17T23:02:26.201Z,29.51
2022-08-17T23:05:16.935Z,29.56
2022-08-17T23:07:47.138Z,29.52
2022-08-17T23:10:16.189Z,29.51
2022-08-17T23:12:44.232Z,29.49
2022-08-17T23:15:16.742Z,29.48
2022-08-17T23:17:45.386Z,29.46
2022-08-17T23:20:17.593Z,29.44
2022-08-17T23:22:51.985Z,29.46
2022-08-17T23:25:27.911Z,29.48
2022-08-17T23:27:57.358Z,29.45
2022-08-17T23:30:28.480Z,29.44
2022-08-17T23:32:56.918Z,29.43
2022-08-17T23:35:40.461Z,29.42
2022-08-17T23:38:10.413Z,29.36
2022-08-17T23:40:39.923Z,29.39
2022-08-17T23:43:17.644Z,29.37
2022-08-17T23:45:54.878Z,29.35
2022-08-17T23:48:28.455Z,29.24
2022-08-17T23:51:09.760Z,29.32
2022-08-17T23:53:42.288Z,29.30
2022-08-17T23:56:11.786Z,29.30
2022-08-17T23:58:42.115Z,29.29
